createdAt,value
2017-12-30T00:00:12.827Z,12.63
2017-12-30T00:02:41.694Z,14.27
2017-12-30T00:05:09.758Z,15.88
2017-12-30T00:07:38.263Z,10.50
2017-12-30T00:10:06.330Z,11.10
2017-12-30T00:12:34.411Z,9.30
2017-12-30T00:15:02.483Z,9.73
2017-12-30T00:17:31.339Z,14.02
2017-12-30T00:19:59.548Z,14.00
2017-12-30T00:22:27.994Z,15.60
2017-12-30T00:24:56.094Z,13.93
2017-12-30T00:27:24.167Z,11.25
2017-12-30T00:29:52.216Z,9.65
2017-12-30T00:32:20.288Z,9.75
2017-12-30T00:34:48.342Z,13.80
2017-12-30T00:37:16.447Z,11.32
2017-12-30T00:39:44.702Z,8.82
2017-12-30T00:42:14.138Z,11.40
2017-12-30T00:44:42.251Z,16.08
2017-12-30T00:47:10.323Z,8.90
2017-12-30T00:49:38.431Z,17.58
2017-12-30T00:52:06.601Z,10.20
2017-12-30T00:54:34.685Z,9.52
2017-12-30T00:57:02.846Z,11.15
2017-12-30T00:59:30.918Z,12.85
2017-12-30T01:01:58.984Z,9.95
2017-12-30T01:04:27.069Z,13.00
2017-12-30T01:06:55.117Z,11.77
2017-12-30T01:09:23.181Z,12.37
2017-12-30T01:11:51.251Z,13.48
2017-12-30T01:14:19.323Z,11.32
2017-12-30T01:16:47.382Z,14.00
2017-12-30T01:19:15.443Z,11.30
2017-12-30T01:21:43.502Z,9.73
2017-12-30T01:24:11.563Z,12.30
2017-12-30T01:26:39.618Z,10.35
2017-12-30T01:29:08.460Z,21.40
2017-12-30T01:31:36.563Z,12.13
2017-12-30T01:34:04.639Z,18.33
2017-12-30T01:36:32.707Z,14.40
2017-12-30T01:39:00.786Z,15.50
2017-12-30T01:41:28.842Z,12.57
2017-12-30T01:43:56.896Z,11.15
2017-12-30T01:46:24.962Z,16.77
2017-12-30T01:49:03.986Z,13.90
2017-12-30T01:51:32.040Z,17.87
2017-12-30T01:54:00.104Z,11.70
2017-12-30T01:56:28.176Z,10.55
2017-12-30T01:58:56.284Z,15.57
2017-12-30T02:01:24.346Z,16.30
2017-12-30T02:03:52.413Z,12.88
2017-12-30T02:06:20.475Z,12.82
2017-12-30T02:08:48.521Z,10.73
2017-12-30T02:11:16.598Z,10.52
2017-12-30T02:13:44.668Z,15.90
2017-12-30T02:16:12.726Z,13.10
2017-12-30T02:18:40.862Z,15.05
2017-12-30T02:21:09.593Z,12.05
2017-12-30T02:23:37.642Z,35.10
2017-12-30T02:26:06.495Z,12.05
2017-12-30T02:28:34.558Z,12.60
2017-12-30T02:31:02.638Z,17.90
2017-12-30T02:33:30.685Z,14.77
2017-12-30T02:35:58.752Z,13.10
2017-12-30T02:38:26.807Z,10.90
2017-12-30T02:40:54.905Z,14.77
2017-12-30T02:43:22.970Z,13.70
2017-12-30T02:45:51.042Z,10.95
2017-12-30T02:48:19.100Z,12.32
2017-12-30T02:50:47.199Z,11.52
2017-12-30T02:53:15.269Z,13.35
2017-12-30T02:55:43.331Z,16.83
2017-12-30T02:58:11.403Z,13.50
2017-12-30T03:00:39.479Z,14.10
2017-12-30T03:03:07.648Z,13.50
2017-12-30T03:05:35.700Z,10.27
2017-12-30T03:08:04.472Z,12.65
2017-12-30T03:10:32.529Z,12.27
2017-12-30T03:13:00.882Z,14.93
2017-12-30T03:15:29.715Z,12.10
2017-12-30T03:17:57.814Z,11.32
2017-12-30T03:20:25.878Z,10.80
2017-12-30T03:22:53.942Z,12.37
2017-12-30T03:25:22.005Z,13.68
2017-12-30T03:27:50.058Z,14.48
2017-12-30T03:30:18.169Z,14.77
2017-12-30T03:32:46.242Z,15.23
2017-12-30T03:35:14.576Z,15.25
2017-12-30T03:37:42.636Z,13.88
2017-12-30T03:40:10.759Z,16.45
2017-12-30T03:42:38.863Z,17.25
2017-12-30T03:45:07.714Z,12.18
2017-12-30T03:47:35.775Z,12.10
2017-12-30T03:50:03.839Z,14.93
2017-12-30T03:52:31.909Z,10.40
2017-12-30T03:54:59.958Z,13.50
2017-12-30T03:57:28.043Z,12.02
2017-12-30T03:59:56.101Z,13.25
2017-12-30T04:02:24.149Z,12.48
2017-12-30T04:04:52.209Z,13.02
2017-12-30T04:07:21.070Z,16.33
2017-12-30T04:09:49.139Z,12.98
2017-12-30T04:12:17.192Z,12.43
2017-12-30T04:14:45.259Z,12.48
2017-12-30T04:17:13.322Z,12.02
2017-12-30T04:19:41.393Z,17.52
2017-12-30T04:22:09.449Z,15.05
2017-12-30T04:24:37.505Z,15.80
2017-12-30T04:27:05.550Z,8.65
2017-12-30T04:29:34.385Z,11.55
2017-12-30T04:32:02.486Z,17.30
2017-12-30T04:34:30.549Z,11.15
2017-12-30T04:36:58.606Z,12.23
2017-12-30T04:39:26.669Z,12.88
2017-12-30T04:41:55.301Z,10.80
2017-12-30T04:44:24.161Z,12.52
2017-12-30T04:46:52.337Z,12.32
2017-12-30T04:49:20.403Z,13.40
2017-12-30T04:51:48.450Z,11.75
2017-12-30T04:54:16.519Z,15.05
2017-12-30T04:56:44.564Z,12.50
2017-12-30T04:59:13.389Z,11.63
2017-12-30T05:01:41.468Z,17.42
2017-12-30T05:04:09.736Z,9.82
2017-12-30T05:06:37.790Z,12.37
2017-12-30T05:09:05.899Z,15.98
2017-12-30T05:11:33.954Z,15.07
2017-12-30T05:14:02.500Z,11.38
2017-12-30T05:16:30.563Z,11.73
2017-12-30T05:18:58.695Z,14.25
2017-12-30T05:21:26.858Z,10.73
2017-12-30T05:23:54.909Z,11.05
2017-12-30T05:26:22.965Z,12.27
2017-12-30T05:28:51.017Z,9.70
2017-12-30T05:31:19.837Z,12.45
2017-12-30T05:33:47.900Z,10.52
2017-12-30T05:36:15.996Z,15.95
2017-12-30T05:38:44.075Z,13.77
2017-12-30T05:41:12.132Z,17.30
2017-12-30T05:43:40.279Z,12.25
2017-12-30T05:46:08.362Z,13.88
2017-12-30T05:48:36.417Z,11.52
2017-12-30T05:51:04.486Z,17.20
2017-12-30T05:53:32.546Z,9.68
2017-12-30T05:56:00.622Z,12.93
2017-12-30T05:58:28.700Z,14.43
2017-12-30T06:00:56.766Z,12.77
2017-12-30T06:03:24.829Z,33.00
2017-12-30T06:05:53.652Z,18.67
2017-12-30T06:08:21.748Z,15.75
2017-12-30T06:10:49.803Z,12.18
2017-12-30T06:13:17.857Z,19.73
2017-12-30T06:15:45.923Z,14.80
2017-12-30T06:18:13.984Z,12.00
2017-12-30T06:20:42.048Z,12.30
2017-12-30T06:23:10.113Z,10.88
2017-12-30T06:25:38.236Z,13.65
2017-12-30T06:28:06.705Z,10.77
2017-12-30T06:30:34.775Z,12.13
2017-12-30T06:33:02.876Z,10.43
2017-12-30T06:35:31.195Z,9.75
2017-12-30T06:37:59.302Z,13.25
2017-12-30T06:40:27.479Z,10.15
2017-12-30T06:42:55.528Z,12.80
2017-12-30T06:45:23.628Z,12.52
2017-12-30T06:47:51.679Z,10.82
2017-12-30T06:50:19.739Z,10.63
2017-12-30T06:52:47.790Z,12.90
2017-12-30T06:55:15.889Z,13.88
2017-12-30T06:57:43.959Z,12.93
2017-12-30T07:00:12.020Z,17.98
2017-12-30T07:02:40.079Z,14.95
2017-12-30T07:05:08.154Z,12.52
2017-12-30T07:07:36.219Z,11.80
2017-12-30T07:10:04.284Z,15.40
2017-12-30T07:12:32.358Z,14.05
2017-12-30T07:15:00.413Z,14.75
2017-12-30T07:17:28.478Z,11.45
2017-12-30T07:19:56.543Z,14.40
2017-12-30T07:22:25.370Z,9.88
2017-12-30T07:24:53.429Z,12.82
2017-12-30T07:27:21.494Z,13.02
2017-12-30T07:29:49.547Z,10.80
2017-12-30T07:32:17.665Z,11.65
2017-12-30T07:34:45.728Z,11.77
2017-12-30T07:37:13.794Z,11.05
2017-12-30T07:39:41.862Z,12.27
2017-12-30T07:42:09.932Z,11.32
2017-12-30T07:44:38.634Z,12.40
2017-12-30T07:47:06.694Z,12.30
2017-12-30T07:49:34.757Z,11.75
2017-12-30T07:52:02.821Z,11.18
2017-12-30T07:54:30.884Z,12.35
2017-12-30T07:56:58.949Z,13.80
2017-12-30T07:59:27.068Z,11.95
2017-12-30T08:01:55.871Z,12.98
2017-12-30T08:04:23.938Z,10.30
2017-12-30T08:06:52.020Z,10.32
2017-12-30T08:09:20.842Z,11.77
2017-12-30T08:11:48.914Z,12.77
2017-12-30T08:14:16.974Z,14.00
2017-12-30T08:16:45.525Z,12.48
2017-12-30T08:19:13.578Z,13.98
2017-12-30T08:21:41.629Z,10.15
2017-12-30T08:24:09.714Z,14.05
2017-12-30T08:26:37.776Z,11.32
2017-12-30T08:29:05.839Z,14.15
2017-12-30T08:31:33.909Z,12.95
2017-12-30T08:34:01.961Z,12.95
2017-12-30T08:36:30.036Z,11.35
2017-12-30T08:38:58.097Z,13.82
2017-12-30T08:41:26.156Z,12.32
2017-12-30T08:43:54.209Z,11.23
2017-12-30T08:46:23.057Z,12.55
2017-12-30T08:48:51.104Z,11.90
2017-12-30T08:51:19.202Z,11.85
2017-12-30T08:53:47.273Z,13.73
2017-12-30T08:56:15.335Z,11.52
2017-12-30T08:58:43.397Z,13.05
2017-12-30T09:01:11.479Z,13.23
2017-12-30T09:03:39.670Z,14.00
2017-12-30T09:06:07.734Z,10.30
2017-12-30T09:08:35.807Z,11.07
2017-12-30T09:11:03.881Z,14.70
2017-12-30T09:13:31.942Z,14.00
2017-12-30T09:16:00.007Z,11.80
2017-12-30T09:18:28.076Z,13.23
2017-12-30T09:20:56.153Z,10.73
2017-12-30T09:23:24.320Z,12.00
2017-12-30T09:25:52.382Z,11.45
2017-12-30T09:28:20.457Z,12.02
2017-12-30T09:30:48.566Z,12.30
2017-12-30T09:33:17.390Z,11.70
2017-12-30T09:35:45.456Z,11.93
2017-12-30T09:38:13.536Z,11.55
2017-12-30T09:40:41.585Z,11.70
2017-12-30T09:43:09.638Z,13.13
2017-12-30T09:45:38.512Z,14.98
2017-12-30T09:48:06.561Z,12.30
2017-12-30T09:50:34.632Z,12.10
2017-12-30T09:53:02.710Z,9.80
2017-12-30T09:55:30.774Z,14.60
2017-12-30T09:57:58.851Z,11.80
2017-12-30T10:00:26.927Z,11.38
2017-12-30T10:02:54.999Z,11.45
2017-12-30T10:05:23.496Z,10.32
2017-12-30T10:07:52.420Z,10.05
2017-12-30T10:10:20.480Z,10.88
2017-12-30T10:12:48.538Z,11.93
2017-12-30T10:15:17.376Z,11.50
2017-12-30T10:17:45.428Z,17.75
2017-12-30T10:20:13.596Z,9.85
2017-12-30T10:22:41.656Z,11.23
2017-12-30T10:25:09.989Z,10.05
2017-12-30T10:27:38.078Z,17.17
2017-12-30T10:30:06.945Z,15.63
2017-12-30T10:32:35.017Z,11.32
2017-12-30T10:35:03.080Z,13.02
2017-12-30T10:37:31.153Z,14.63
2017-12-30T10:39:59.207Z,10.65
2017-12-30T10:42:27.299Z,9.80
2017-12-30T10:44:55.361Z,15.20
2017-12-30T10:47:23.674Z,17.42
2017-12-30T10:49:51.802Z,12.57
2017-12-30T10:52:20.114Z,13.75
2017-12-30T10:54:49.472Z,11.02
2017-12-30T10:57:17.543Z,10.30
2017-12-30T10:59:45.607Z,10.10
2017-12-30T11:02:13.810Z,8.88
2017-12-30T11:04:41.869Z,11.65
2017-12-30T11:07:09.938Z,15.30
2017-12-30T11:09:38.007Z,13.35
2017-12-30T11:12:06.807Z,11.40
2017-12-30T11:14:34.861Z,13.00
2017-12-30T11:17:02.942Z,10.55
2017-12-30T11:19:31.011Z,18.95
2017-12-30T11:21:59.078Z,10.80
2017-12-30T11:24:27.139Z,8.52
2017-12-30T11:26:55.213Z,12.55
2017-12-30T11:29:23.277Z,10.77
2017-12-30T11:31:51.342Z,8.77
2017-12-30T11:34:19.419Z,11.10
2017-12-30T11:36:47.492Z,17.25
2017-12-30T11:39:15.564Z,14.60
2017-12-30T11:41:43.625Z,18.98
2017-12-30T11:44:11.700Z,13.65
2017-12-30T11:46:39.753Z,18.08
2017-12-30T11:49:07.819Z,11.85
2017-12-30T11:51:35.877Z,10.13
2017-12-30T11:54:03.950Z,11.20
2017-12-30T11:56:32.062Z,11.00
2017-12-30T11:59:00.125Z,13.27
2017-12-30T12:01:28.191Z,10.32
2017-12-30T12:03:56.263Z,15.40
2017-12-30T12:06:24.316Z,14.80
2017-12-30T12:08:52.502Z,14.52
2017-12-30T12:11:20.609Z,14.55
2017-12-30T12:13:48.676Z,19.15
2017-12-30T12:16:16.791Z,11.60
2017-12-30T12:18:44.883Z,12.02
2017-12-30T12:21:13.001Z,16.02
2017-12-30T12:23:41.826Z,12.52
2017-12-30T12:26:09.902Z,17.33
2017-12-30T12:28:37.965Z,15.18
2017-12-30T12:31:06.388Z,22.85
2017-12-30T12:33:35.114Z,14.00
2017-12-30T12:36:03.170Z,11.60
2017-12-30T12:38:32.019Z,13.73
2017-12-30T12:41:00.519Z,16.52
2017-12-30T12:43:28.583Z,13.88
2017-12-30T12:45:56.637Z,10.85
2017-12-30T12:48:24.728Z,10.05
2017-12-30T12:50:52.804Z,18.15
2017-12-30T12:53:20.867Z,15.40
2017-12-30T12:55:48.921Z,12.77
2017-12-30T12:58:17.012Z,19.52
2017-12-30T13:00:45.074Z,28.45
2017-12-30T13:03:13.146Z,16.00
2017-12-30T13:05:41.825Z,11.15
2017-12-30T13:08:09.883Z,17.58
2017-12-30T13:10:38.186Z,16.92
2017-12-30T13:13:07.334Z,13.85
2017-12-30T13:15:35.411Z,15.93
2017-12-30T13:18:03.479Z,14.77
2017-12-30T13:20:31.676Z,17.52
2017-12-30T13:22:59.993Z,9.00
2017-12-30T13:25:28.820Z,10.95
2017-12-30T13:27:56.892Z,11.52
2017-12-30T13:30:24.985Z,10.23
2017-12-30T13:32:53.230Z,13.40
2017-12-30T13:35:21.307Z,11.45
2017-12-30T13:37:52.594Z,27.92
2017-12-30T13:40:20.958Z,13.62
2017-12-30T13:42:49.039Z,10.05
2017-12-30T13:45:17.609Z,12.70
2017-12-30T13:47:45.677Z,16.25
2017-12-30T13:50:13.745Z,17.80
2017-12-30T13:52:41.809Z,20.35
2017-12-30T13:55:09.977Z,16.58
2017-12-30T13:57:38.047Z,20.45
2017-12-30T14:00:06.103Z,8.95
2017-12-30T14:02:34.179Z,14.10
2017-12-30T14:05:02.263Z,14.60
2017-12-30T14:07:30.342Z,59.03
2017-12-30T14:09:58.423Z,13.93
2017-12-30T14:12:26.603Z,14.68
2017-12-30T14:14:55.254Z,16.77
2017-12-30T14:17:23.346Z,14.70
2017-12-30T14:19:52.444Z,13.50
2017-12-30T14:22:20.527Z,11.43
2017-12-30T14:24:48.695Z,14.48
2017-12-30T14:27:16.753Z,12.23
2017-12-30T14:29:44.814Z,19.45
2017-12-30T14:32:12.888Z,13.07
2017-12-30T14:34:40.958Z,12.35
2017-12-30T14:37:09.356Z,11.32
2017-12-30T14:39:37.432Z,14.93
2017-12-30T14:42:05.485Z,15.43
2017-12-30T14:44:33.574Z,22.83
2017-12-30T14:47:01.640Z,15.93
2017-12-30T14:49:29.699Z,15.32
2017-12-30T14:51:57.758Z,12.65
2017-12-30T14:54:25.813Z,20.92
2017-12-30T14:56:54.021Z,14.98
2017-12-30T14:59:22.091Z,18.98
2017-12-30T15:01:50.183Z,21.85
2017-12-30T15:04:19.020Z,19.10
2017-12-30T15:06:47.090Z,16.50
2017-12-30T15:09:15.259Z,24.87
2017-12-30T15:11:43.326Z,23.90
2017-12-30T15:14:12.024Z,16.52
2017-12-30T15:16:40.539Z,24.70
2017-12-30T15:19:08.708Z,18.37
2017-12-30T15:21:36.789Z,21.65
2017-12-30T15:24:04.855Z,20.67
2017-12-30T15:26:32.916Z,25.45
2017-12-30T15:29:01.175Z,27.40
2017-12-30T15:31:29.341Z,29.05
2017-12-30T15:33:57.401Z,29.48
2017-12-30T15:36:25.466Z,33.17
2017-12-30T15:38:53.531Z,23.75
2017-12-30T15:41:21.623Z,24.30
2017-12-30T15:43:52.034Z,26.35
2017-12-30T15:46:20.130Z,21.83
2017-12-30T15:48:48.185Z,32.92
2017-12-30T15:51:16.375Z,30.48
2017-12-30T15:53:44.451Z,23.83
2017-12-30T15:56:12.515Z,36.78
2017-12-30T15:58:41.271Z,28.33
2017-12-30T16:01:09.345Z,19.92
2017-12-30T16:03:37.391Z,17.23
2017-12-30T16:06:05.486Z,19.87
2017-12-30T16:08:35.026Z,21.62
2017-12-30T16:11:03.090Z,21.70
2017-12-30T16:13:31.168Z,28.05
2017-12-30T16:15:59.222Z,24.35
2017-12-30T16:18:27.283Z,28.87
2017-12-30T16:20:55.346Z,22.65
2017-12-30T16:23:23.421Z,18.45
2017-12-30T16:25:51.490Z,26.55
2017-12-30T16:28:19.533Z,21.62
2017-12-30T16:30:47.599Z,25.80
2017-12-30T16:33:15.667Z,20.15
2017-12-30T16:35:43.739Z,22.87
2017-12-30T16:38:11.821Z,29.70
2017-12-30T16:40:40.482Z,26.37
2017-12-30T16:43:09.305Z,27.87
2017-12-30T16:45:37.711Z,28.58
2017-12-30T16:48:05.761Z,23.67
2017-12-30T16:50:34.761Z,28.67
2017-12-30T16:53:02.815Z,28.60
2017-12-30T16:55:30.887Z,32.90
2017-12-30T16:57:58.956Z,27.65
2017-12-30T17:00:27.031Z,27.58
2017-12-30T17:02:55.114Z,28.80
2017-12-30T17:05:23.177Z,32.63
2017-12-30T17:07:51.244Z,27.75
2017-12-30T17:10:19.333Z,33.60
2017-12-30T17:12:47.392Z,29.42
2017-12-30T17:15:15.480Z,32.47
2017-12-30T17:17:43.538Z,25.88
2017-12-30T17:20:11.607Z,29.15
2017-12-30T17:22:39.661Z,30.52
2017-12-30T17:25:07.735Z,26.42
2017-12-30T17:27:35.868Z,34.53
2017-12-30T17:30:04.710Z,25.80
2017-12-30T17:32:33.566Z,26.05
2017-12-30T17:35:01.636Z,28.55
2017-12-30T17:37:29.702Z,29.35
2017-12-30T17:39:57.765Z,22.85
2017-12-30T17:42:26.589Z,25.90
2017-12-30T17:44:55.556Z,22.60
2017-12-30T17:47:23.633Z,17.45
2017-12-30T17:49:51.705Z,19.05
2017-12-30T17:52:20.322Z,19.15
2017-12-30T17:54:48.391Z,20.55
2017-12-30T17:57:16.472Z,21.60
2017-12-30T17:59:44.545Z,25.42
2017-12-30T18:02:12.676Z,27.98
2017-12-30T18:04:40.727Z,20.23
2017-12-30T18:07:08.799Z,17.48
2017-12-30T18:09:36.867Z,21.12
2017-12-30T18:12:04.936Z,21.30
2017-12-30T18:14:32.997Z,20.52
2017-12-30T18:17:01.070Z,24.65
2017-12-30T18:19:29.128Z,30.35
2017-12-30T18:21:58.663Z,25.60
2017-12-30T18:24:26.728Z,21.77
2017-12-30T18:26:54.804Z,19.25
2017-12-30T18:29:23.627Z,12.25
2017-12-30T18:31:51.774Z,18.30
2017-12-30T18:34:19.855Z,22.87
2017-12-30T18:36:47.910Z,25.62
2017-12-30T18:39:16.013Z,18.83
2017-12-30T18:41:44.606Z,18.90
2017-12-30T18:44:12.884Z,28.58
2017-12-30T18:46:40.963Z,25.25
2017-12-30T18:49:09.035Z,14.63
2017-12-30T18:51:37.106Z,14.60
2017-12-30T18:54:05.259Z,22.95
2017-12-30T18:56:33.326Z,14.15
2017-12-30T18:59:01.847Z,14.07
2017-12-30T19:01:31.220Z,23.48
2017-12-30T19:03:59.498Z,22.48
2017-12-30T19:06:27.551Z,16.80
2017-12-30T19:08:55.703Z,12.65
2017-12-30T19:11:23.852Z,17.65
2017-12-30T19:13:51.912Z,18.55
2017-12-30T19:16:20.047Z,25.75
2017-12-30T19:18:48.105Z,22.92
2017-12-30T19:21:16.183Z,25.70
2017-12-30T19:23:44.269Z,33.47
2017-12-30T19:26:12.455Z,17.05
2017-12-30T19:28:41.299Z,20.58
2017-12-30T19:31:09.368Z,20.62
2017-12-30T19:33:37.448Z,25.92
2017-12-30T19:36:05.509Z,26.02
2017-12-30T19:38:33.581Z,22.02
2017-12-30T19:41:01.852Z,13.75
2017-12-30T19:43:29.928Z,30.40
2017-12-30T19:45:59.531Z,16.85
2017-12-30T19:48:27.610Z,17.02
2017-12-30T19:50:55.698Z,23.17
2017-12-30T19:53:23.749Z,42.30
2017-12-30T19:55:51.838Z,15.90
2017-12-30T19:58:19.916Z,29.70
2017-12-30T20:00:47.987Z,17.87
2017-12-30T20:03:16.055Z,28.10
2017-12-30T20:05:44.127Z,24.42
2017-12-30T20:08:12.295Z,26.12
2017-12-30T20:10:40.363Z,28.92
2017-12-30T20:13:08.436Z,31.77
2017-12-30T20:15:36.519Z,23.50
2017-12-30T20:18:04.599Z,29.65
2017-12-30T20:20:33.428Z,46.33
2017-12-30T20:23:01.496Z,32.95
2017-12-30T20:25:29.582Z,35.95
2017-12-30T20:27:58.429Z,36.00
2017-12-30T20:30:26.519Z,39.72
2017-12-30T20:32:54.650Z,24.00
2017-12-30T20:35:22.818Z,37.60
2017-12-30T20:37:51.686Z,30.88
2017-12-30T20:40:19.806Z,29.40
2017-12-30T20:42:47.892Z,29.20
2017-12-30T20:45:15.972Z,29.10
2017-12-30T20:47:44.039Z,25.33
2017-12-30T20:50:12.115Z,26.12
2017-12-30T20:52:40.173Z,37.33
2017-12-30T20:55:08.239Z,31.33
2017-12-30T20:57:36.285Z,29.20
2017-12-30T21:00:05.250Z,24.03
2017-12-30T21:02:33.311Z,25.00
2017-12-30T21:05:01.377Z,21.57
2017-12-30T21:07:29.438Z,39.00
2017-12-30T21:09:57.858Z,29.00
2017-12-30T21:12:25.957Z,28.80
2017-12-30T21:14:54.038Z,26.07
2017-12-30T21:17:22.115Z,32.63
2017-12-30T21:19:50.175Z,18.90
2017-12-30T21:22:18.263Z,28.27
2017-12-30T21:24:46.309Z,20.13
2017-12-30T21:27:14.490Z,31.67
2017-12-30T21:29:43.284Z,30.07
2017-12-30T21:32:11.363Z,28.30
2017-12-30T21:34:39.419Z,46.27
2017-12-30T21:37:07.492Z,23.73
2017-12-30T21:39:35.558Z,32.07
2017-12-30T21:42:03.631Z,31.33
2017-12-30T21:44:31.709Z,29.80
2017-12-30T21:46:59.769Z,22.47
2017-12-30T21:49:27.830Z,24.70
2017-12-30T21:51:56.671Z,25.27
2017-12-30T21:54:24.744Z,31.33
2017-12-30T21:56:52.826Z,27.30
2017-12-30T21:59:21.698Z,35.00
2017-12-30T22:01:50.106Z,38.37
2017-12-30T22:04:18.253Z,22.93
2017-12-30T22:06:46.713Z,31.97
2017-12-30T22:09:14.777Z,22.07
2017-12-30T22:11:42.872Z,30.87
2017-12-30T22:14:10.943Z,32.17
2017-12-30T22:16:39.005Z,19.70
2017-12-30T22:19:07.089Z,21.53
2017-12-30T22:21:35.167Z,28.60
2017-12-30T22:24:03.221Z,18.03
2017-12-30T22:26:31.293Z,17.60
2017-12-30T22:28:59.370Z,22.37
2017-12-30T22:31:27.429Z,26.33
2017-12-30T22:33:55.495Z,19.03
2017-12-30T22:36:23.567Z,20.80
2017-12-30T22:38:51.650Z,20.87
2017-12-30T22:41:19.731Z,26.53
2017-12-30T22:43:47.794Z,27.20
2017-12-30T22:46:15.862Z,27.70
2017-12-30T22:48:43.946Z,19.27
2017-12-30T22:51:12.010Z,26.27
2017-12-30T22:53:40.114Z,21.63
2017-12-30T22:56:08.958Z,23.40
2017-12-30T22:58:37.013Z,18.10
2017-12-30T23:01:07.921Z,13.20
2017-12-30T23:03:35.973Z,18.33
2017-12-30T23:06:04.831Z,14.17
2017-12-30T23:08:32.893Z,22.67
2017-12-30T23:11:00.963Z,14.80
2017-12-30T23:13:29.031Z,20.30
2017-12-30T23:15:57.111Z,13.77
2017-12-30T23:18:25.196Z,15.13
2017-12-30T23:20:53.266Z,17.17
2017-12-30T23:23:21.365Z,18.60
2017-12-30T23:25:50.443Z,14.93
2017-12-30T23:28:18.505Z,18.37
2017-12-30T23:30:46.568Z,18.43
2017-12-30T23:33:14.646Z,23.53
2017-12-30T23:35:42.704Z,17.27
2017-12-30T23:38:10.799Z,19.83
2017-12-30T23:40:38.857Z,21.00
2017-12-30T23:43:06.917Z,15.10
2017-12-30T23:45:34.989Z,18.50
2017-12-30T23:48:03.237Z,21.60
2017-12-30T23:50:31.329Z,24.87
2017-12-30T23:52:59.503Z,23.40
2017-12-30T23:55:27.690Z,19.50
2017-12-30T23:57:55.759Z,14.53
